Time;durP1;ratioP1;P1;durP2;ratioP2;P2;SDS_P1;SDS_P2;PMS_P1;PMS_P2;Temp;Humidity;BMP_temperature;BMP_pressure;BME280_temperature;BME280_humidity;BME280_pressure;Samples;Min_cycle;Max_cycle;Signal;HPM_P1;HPM_P2
2022/03/26 00:00:32;;;;;;;25.08;11.52;;;;;;;6.73;51.31;101025.38;6357548;27;20046;-77
2022/03/26 00:03:35;;;;;;;23.53;11.60;;;;;;;6.78;51.70;101033.88;6358332;27;20040;-77
2022/03/26 00:06:35;;;;;;;23.95;11.93;;;;;;;6.79;50.18;101021.75;6340855;27;20352;-77
2022/03/26 00:09:37;;;;;;;26.45;12.05;;;;;;;6.71;50.10;101027.16;6340113;27;20388;-77
2022/03/26 00:12:39;;;;;;;22.98;12.10;;;;;;;6.68;50.00;101024.69;6357412;27;20046;-78
2022/03/26 00:15:40;;;;;;;24.55;12.70;;;;;;;6.65;50.69;101017.84;6357209;27;20046;-77
2022/03/26 00:18:41;;;;;;;24.58;13.02;;;;;;;6.65;51.40;101015.25;6357172;27;20096;-78
2022/03/26 00:21:45;;;;;;;25.00;12.27;;;;;;;6.66;49.95;101029.91;6375365;27;20114;-78
2022/03/26 00:24:46;;;;;;;24.88;12.57;;;;;;;6.61;49.79;101016.22;6356961;27;20480;-77
2022/03/26 00:27:47;;;;;;;20.33;11.90;;;;;;;6.41;50.54;101018.53;6333391;27;20089;-77
2022/03/26 00:30:47;;;;;;;20.67;11.13;;;;;;;6.52;50.78;101018.22;6343706;27;20065;-77
2022/03/26 00:33:48;;;;;;;24.55;11.68;;;;;;;6.56;51.24;101014.66;6326063;27;20069;-77
2022/03/26 00:36:49;;;;;;;26.38;11.82;;;;;;;6.61;50.75;101018.81;6325150;27;20461;-77
2022/03/26 00:39:50;;;;;;;20.42;11.13;;;;;;;6.55;52.02;101012.97;6326541;27;20050;-77
2022/03/26 00:42:51;;;;;;;25.85;10.82;;;;;;;6.64;52.05;101018.72;6340723;27;20035;-77
2022/03/26 00:45:51;;;;;;;22.08;10.60;;;;;;;6.57;53.56;101017.22;6324993;27;20054;-77
2022/03/26 00:48:56;;;;;;;21.85;10.80;;;;;;;6.50;54.39;101012.25;6341991;27;20066;-77
2022/03/26 00:51:56;;;;;;;20.48;10.40;;;;;;;6.45;56.09;101021.00;6340997;27;20526;-77
2022/03/26 00:54:57;;;;;;;24.13;11.40;;;;;;;6.39;56.82;101025.53;6358586;27;20052;-77
2022/03/26 00:57:58;;;;;;;22.67;11.73;;;;;;;6.36;58.71;101026.47;6342252;27;20040;-77
2022/03/26 01:00:59;;;;;;;26.10;12.00;;;;;;;6.37;59.13;101025.56;6358947;27;20043;-77
2022/03/26 01:04:00;;;;;;;26.92;12.60;;;;;;;6.39;58.96;101022.94;6358870;27;20054;-77
2022/03/26 01:07:01;;;;;;;21.10;12.20;;;;;;;6.33;59.70;101028.28;6324845;27;20043;-80
2022/03/26 01:10:04;;;;;;;27.42;13.13;;;;;;;6.21;60.91;101026.88;6324267;28;20118;-80
2022/03/26 01:13:05;;;;;;;24.42;12.75;;;;;;;6.27;60.79;101021.53;6357862;27;20042;-80
2022/03/26 01:16:06;;;;;;;24.00;12.73;;;;;;;6.31;61.42;101033.50;6375109;27;20047;-81
2022/03/26 01:19:07;;;;;;;24.95;11.75;;;;;;;6.28;61.33;101025.81;6356908;27;20050;-81
2022/03/26 01:22:08;;;;;;;23.80;11.98;;;;;;;6.30;61.58;101030.94;6356679;27;20066;-81
2022/03/26 01:25:10;;;;;;;24.25;12.43;;;;;;;6.15;62.17;101022.69;6356788;27;20452;-80
2022/03/26 01:28:11;;;;;;;23.77;12.50;;;;;;;6.21;62.44;101029.47;6356655;27;20118;-81
2022/03/26 01:31:12;;;;;;;23.80;11.98;;;;;;;6.24;62.39;101024.22;6374722;27;20497;-81
2022/03/26 01:34:13;;;;;;;23.38;11.75;;;;;;;6.18;63.02;101017.44;6356620;27;20039;-81
2022/03/26 01:37:14;;;;;;;22.17;12.25;;;;;;;6.16;62.86;101016.63;6339466;27;20077;-81
2022/03/26 01:40:15;;;;;;;26.67;11.90;;;;;;;6.05;64.21;101022.13;6356599;27;20403;-81
2022/03/26 01:43:16;;;;;;;28.00;11.68;;;;;;;6.00;64.40;101023.13;6339357;27;20046;-81
2022/03/26 01:46:17;;;;;;;26.65;12.90;;;;;;;5.96;64.55;101022.34;6330556;28;20411;-81
2022/03/26 01:49:18;;;;;;;22.38;10.98;;;;;;;5.96;64.90;101013.72;6347796;28;20130;-81
2022/03/26 01:52:19;;;;;;;27.88;12.23;;;;;;;6.01;64.54;101009.25;6330747;28;20480;-82
2022/03/26 01:55:21;;;;;;;28.77;12.80;;;;;;;6.09;64.50;101011.66;6347450;28;20055;-81
2022/03/26 01:58:22;;;;;;;30.80;11.38;;;;;;;5.99;64.75;101011.91;6348670;28;20035;-81
2022/03/26 02:01:23;;;;;;;23.80;12.50;;;;;;;5.99;64.76;101016.22;6330227;28;20047;-81
2022/03/26 02:04:24;;;;;;;23.10;12.25;;;;;;;6.00;64.55;101013.59;6346286;28;20072;-81
2022/03/26 02:07:25;;;;;;;28.17;12.07;;;;;;;5.84;65.53;101010.53;6348347;28;20044;-82
2022/03/26 02:10:27;;;;;;;27.60;11.98;;;;;;;5.78;66.52;101017.63;6330117;28;20560;-82
2022/03/26 02:13:47;;;;;;;27.73;12.32;;;;;;;5.80;66.11;101010.66;6347247;28;20047;-82
2022/03/26 02:16:48;;;;;;;19.80;10.90;;;;;;;5.83;66.22;101003.66;6367301;27;20047;-82
2022/03/26 02:19:54;;;;;;;24.77;11.50;;;;;;;5.92;65.92;101002.56;6338515;27;20043;-82
2022/03/26 02:22:55;;;;;;;25.52;12.18;;;;;;;5.91;65.88;101002.59;6373573;27;20077;-82
2022/03/26 02:25:55;;;;;;;24.90;11.57;;;;;;;5.75;66.64;101003.00;6338494;27;20031;-82
2022/03/26 02:29:03;;;;;;;27.33;11.82;;;;;;;5.78;66.36;101004.66;6338106;27;20080;-82
2022/03/26 02:32:05;;;;;;;24.33;11.48;;;;;;;5.72;66.38;101003.06;6354978;27;20043;-81
2022/03/26 02:35:06;;;;;;;27.00;12.02;;;;;;;5.60;66.97;100995.63;6338021;27;20035;-81
2022/03/26 02:38:09;;;;;;;25.58;11.68;;;;;;;5.55;67.13;101000.06;6355170;27;20036;-82
2022/03/26 02:41:10;;;;;;;26.75;11.57;;;;;;;5.41;67.74;101005.59;6372799;27;20406;-81
2022/03/26 02:44:11;;;;;;;22.65;11.57;;;;;;;5.46;67.88;100998.56;6373056;27;20470;-81
2022/03/26 02:47:12;;;;;;;24.00;11.40;;;;;;;5.53;67.72;101010.47;6346194;28;20039;-81
2022/03/26 02:50:14;;;;;;;26.93;11.73;;;;;;;5.51;67.55;101009.66;6346238;28;20555;-81
2022/03/26 02:53:15;;;;;;;26.25;12.57;;;;;;;5.44;67.49;101010.69;6347086;28;20460;-81
2022/03/26 02:56:15;;;;;;;26.83;12.50;;;;;;;5.37;67.93;100998.78;6346360;28;20044;-81
2022/03/26 02:59:17;;;;;;;36.70;14.27;;;;;;;5.25;68.51;101008.56;6345863;28;20059;-81
2022/03/26 03:02:18;;;;;;;29.10;13.82;;;;;;;5.25;69.21;101008.56;6329282;28;20059;-81
2022/03/26 03:05:19;;;;;;;24.23;11.75;;;;;;;5.27;69.36;101008.50;6329122;28;20491;-81
2022/03/26 03:08:21;;;;;;;28.85;13.50;;;;;;;5.26;69.73;101009.41;6328953;28;20118;-81
2022/03/26 03:11:22;;;;;;;27.25;14.02;;;;;;;5.31;69.72;101004.09;6328894;28;20071;-81
2022/03/26 03:14:23;;;;;;;30.27;12.90;;;;;;;5.30;69.52;101003.25;6346963;28;20594;-81
2022/03/26 03:17:24;;;;;;;22.90;12.88;;;;;;;5.28;70.36;100999.88;6328667;28;20509;-81
2022/03/26 03:20:25;;;;;;;27.35;13.75;;;;;;;5.29;70.67;100992.94;6345664;28;20044;-78
2022/03/26 03:23:26;;;;;;;28.65;14.27;;;;;;;5.18;71.40;100994.03;6346770;28;20164;-78
2022/03/26 03:26:27;;;;;;;23.33;13.80;;;;;;;5.20;72.24;101001.78;6345695;28;20039;-78
2022/03/26 03:29:28;;;;;;;33.28;14.82;;;;;;;5.25;72.55;101008.56;6344905;28;20050;-78
2022/03/26 03:32:29;;;;;;;30.13;14.65;;;;;;;5.27;72.33;101002.47;6346708;28;20067;-78
2022/03/26 03:35:30;;;;;;;32.20;14.85;;;;;;;5.27;72.20;101000.72;6311841;28;20047;-78
2022/03/26 03:38:31;;;;;;;30.38;14.77;;;;;;;5.27;72.28;101002.47;6345488;28;20063;-77
2022/03/26 03:41:32;;;;;;;29.50;14.93;;;;;;;5.21;72.84;101000.91;6345360;28;20050;-78
2022/03/26 03:44:33;;;;;;;27.73;14.45;;;;;;;5.18;73.35;101000.97;6345005;28;20404;-78
2022/03/26 03:47:34;;;;;;;28.30;14.35;;;;;;;5.17;73.29;101002.72;6346377;28;20039;-78
2022/03/26 03:50:35;;;;;;;28.05;13.95;;;;;;;5.20;73.62;101000.03;6328182;28;20109;-78
2022/03/26 03:53:36;;;;;;;28.40;14.57;;;;;;;5.19;73.64;101003.53;6345017;28;20059;-78
2022/03/26 03:56:38;;;;;;;35.88;14.80;;;;;;;5.16;73.69;100998.41;6344950;28;20494;-77
2022/03/26 03:59:41;;;;;;;27.15;14.52;;;;;;;5.06;74.54;101004.69;6345324;28;20067;-77
2022/03/26 04:02:42;;;;;;;23.55;12.98;;;;;;;5.13;74.24;100998.50;6345233;28;20040;-77
2022/03/26 04:05:43;;;;;;;28.48;14.73;;;;;;;5.21;73.72;101000.91;6344745;28;20071;-77
2022/03/26 04:08:44;;;;;;;23.98;13.10;;;;;;;5.23;73.47;101001.72;6344877;28;20040;-77
2022/03/26 04:11:44;;;;;;;30.42;13.63;;;;;;;5.27;73.47;101012.84;6344878;28;20046;-81
2022/03/26 04:14:45;;;;;;;27.98;13.98;;;;;;;5.16;74.01;101013.94;6346105;28;20044;-81
2022/03/26 04:17:47;;;;;;;27.10;13.48;;;;;;;5.14;73.96;101013.13;6344864;28;20170;-81
2022/03/26 04:20:48;;;;;;;30.35;13.10;;;;;;;5.22;73.50;101006.03;6344659;28;20560;-81
2022/03/26 04:23:49;;;;;;;22.88;12.35;;;;;;;5.29;72.92;101011.06;6345991;28;20061;-81
2022/03/26 04:26:50;;;;;;;28.52;13.50;;;;;;;5.14;73.47;101013.13;6345929;28;20042;-81
2022/03/26 04:29:51;;;;;;;30.95;14.00;;;;;;;5.06;73.75;101009.84;6344524;28;20047;-81
2022/03/26 04:32:52;;;;;;;30.02;13.45;;;;;;;5.02;74.02;101018.56;6345632;28;20044;-81
2022/03/26 04:35:53;;;;;;;28.00;12.82;;;;;;;5.03;74.20;101017.69;6344731;28;20543;-81
2022/03/26 04:38:54;;;;;;;28.70;13.05;;;;;;;5.03;74.08;101013.38;6345764;28;20040;-81
2022/03/26 04:41:54;;;;;;;31.52;13.55;;;;;;;5.01;73.68;101007.38;6349533;28;20046;-81
2022/03/26 04:44:55;;;;;;;35.75;13.15;;;;;;;5.05;73.94;101016.78;6349195;28;20047;-81
2022/03/26 04:47:56;;;;;;;27.65;13.13;;;;;;;5.00;74.54;101013.47;6349328;28;20119;-81
2022/03/26 04:50:58;;;;;;;24.27;13.23;;;;;;;5.01;74.88;101012.56;6332219;28;20048;-81
2022/03/26 04:53:58;;;;;;;34.63;13.70;;;;;;;4.91;75.36;101018.81;6348998;28;20510;-80
2022/03/26 04:56:59;;;;;;;29.05;13.27;;;;;;;5.03;74.38;101008.19;6332345;28;20134;-80
2022/03/26 05:00:00;;;;;;;26.00;13.27;;;;;;;5.13;74.46;101008.84;6315381;28;20493;-80
2022/03/26 05:03:01;;;;;;;30.92;12.30;;;;;;;5.12;74.80;101014.88;6350073;28;20039;-79
2022/03/26 05:06:02;;;;;;;31.83;12.57;;;;;;;5.15;74.25;101016.56;6348939;28;20035;-79
2022/03/26 05:09:04;;;;;;;29.85;12.77;;;;;;;5.20;74.71;101018.16;6348708;28;20166;-79
2022/03/26 05:12:05;;;;;;;29.73;12.98;;;;;;;5.31;74.35;101023.06;6349566;28;20039;-79
2022/03/26 05:15:06;;;;;;;25.15;12.15;;;;;;;5.40;73.00;101022.03;6349987;28;20109;-79
2022/03/26 05:18:07;;;;;;;23.08;12.13;;;;;;;5.44;74.05;101023.66;6349850;28;20052;-79
2022/03/26 05:21:08;;;;;;;28.83;13.45;;;;;;;5.51;74.01;101020.00;6349850;28;20392;-79
2022/03/26 05:24:08;;;;;;;25.08;11.70;;;;;;;5.65;72.81;101015.34;6314722;28;20406;-79
2022/03/26 05:27:10;;;;;;;23.17;11.05;;;;;;;5.81;71.86;101030.50;6331542;28;20056;-79
2022/03/26 05:30:12;;;;;;;24.20;12.77;;;;;;;5.95;72.36;101031.03;6331545;28;20399;-79
2022/03/26 05:33:13;;;;;;;35.00;12.30;;;;;;;6.10;71.59;101028.91;6348234;28;20092;-77
2022/03/26 05:36:14;;;;;;;20.15;11.02;;;;;;;6.22;70.10;101033.78;6348151;28;20044;-77
2022/03/26 05:39:15;;;;;;;20.67;11.57;;;;;;;6.30;70.24;101031.81;6348309;28;20120;-77
2022/03/26 05:42:18;;;;;;;28.03;12.53;;;;;;;6.48;70.38;101033.03;6331367;28;20040;-77
2022/03/26 05:45:19;;;;;;;22.83;11.75;;;;;;;6.62;69.40;101041.25;6349252;27;20039;-77
2022/03/26 05:48:20;;;;;;;27.60;12.77;;;;;;;6.73;69.44;101037.50;6349115;28;20043;-77
2022/03/26 05:51:21;;;;;;;26.02;11.88;;;;;;;6.91;68.57;101036.13;6330733;28;20040;-77
2022/03/26 05:54:22;;;;;;;24.13;12.00;;;;;;;7.09;67.53;101042.50;6347282;28;20056;-77
2022/03/26 05:57:23;;;;;;;20.90;11.60;;;;;;;7.29;67.62;101044.44;6346751;28;20042;-77
2022/03/26 06:00:24;;;;;;;40.00;20.42;;;;;;;7.41;66.66;101051.84;6347501;27;20044;-77
2022/03/26 06:03:25;;;;;;;39.05;19.55;;;;;;;7.53;68.22;101045.44;6348565;28;20544;-81
2022/03/26 06:06:26;;;;;;;34.58;17.63;;;;;;;7.65;66.77;101043.28;6347482;28;20039;-81
2022/03/26 06:09:27;;;;;;;41.50;17.95;;;;;;;7.81;67.70;101045.38;6335233;27;20547;-81
2022/03/26 06:12:28;;;;;;;48.50;18.48;;;;;;;7.92;64.42;101051.03;6343724;27;20035;-84
2022/03/26 06:15:29;;;;;;;38.53;18.05;;;;;;;7.94;62.61;101049.22;6357914;27;20051;-81
2022/03/26 06:18:31;;;;;;;43.33;18.00;;;;;;;8.03;61.51;101058.47;6366582;27;20543;-82
2022/03/26 06:21:34;;;;;;;40.17;18.25;;;;;;;8.05;61.70;101057.53;6336912;27;20087;-80
2022/03/26 06:24:35;;;;;;;42.90;18.38;;;;;;;8.15;62.43;101063.25;6371288;27;20063;-81
2022/03/26 06:27:36;;;;;;;52.47;18.73;;;;;;;8.30;62.17;101054.06;6354149;27;20073;-80
2022/03/26 06:30:38;;;;;;;40.47;17.20;;;;;;;8.42;61.67;101061.47;6355921;27;20658;-86
2022/03/26 06:33:38;;;;;;;41.13;17.15;;;;;;;8.56;62.14;101060.94;6355926;27;20092;-82
2022/03/26 06:36:40;;;;;;;41.30;17.52;;;;;;;8.78;60.92;101071.41;6355124;27;20047;-82
2022/03/26 06:39:41;;;;;;;45.67;19.70;;;;;;;8.95;61.97;101075.13;6355117;27;20618;-81
2022/03/26 06:42:42;;;;;;;38.60;19.63;;;;;;;9.06;60.20;101073.00;6365661;27;20051;-81
2022/03/26 06:45:46;;;;;;;59.60;22.83;;;;;;;9.21;59.37;101076.75;6333154;27;20046;-82
2022/03/26 06:48:47;;;;;;;39.08;19.90;;;;;;;9.36;58.48;101077.91;6360353;27;20043;-82
2022/03/26 06:51:48;;;;;;;43.58;19.08;;;;;;;9.52;58.41;101084.19;6316619;28;20039;-82
2022/03/26 06:54:50;;;;;;;41.85;18.77;;;;;;;9.76;57.79;101084.09;6328664;28;20059;-82
2022/03/26 06:57:51;;;;;;;34.50;18.23;;;;;;;9.95;56.49;101079.00;6329492;28;20843;-82
2022/03/26 07:00:52;;;;;;;43.30;19.15;;;;;;;10.18;57.17;101080.63;6365662;27;20047;-82
2022/03/26 07:03:53;;;;;;;35.13;17.15;;;;;;;10.45;54.97;101081.19;6371889;27;20035;-82
2022/03/26 07:06:54;;;;;;;37.50;19.05;;;;;;;10.67;54.75;101088.94;6354652;27;20510;-82
2022/03/26 07:09:56;;;;;;;39.58;16.08;;;;;;;10.86;52.85;101084.56;6372525;27;20088;-82
2022/03/26 07:12:57;;;;;;;49.38;19.30;;;;;;;11.18;52.40;101087.44;6372566;27;20070;-82
2022/03/26 07:15:58;;;;;;;56.83;23.77;;;;;;;11.35;51.36;101085.81;6337287;27;20031;-81
2022/03/26 07:18:59;;;;;;;46.53;18.20;;;;;;;11.52;50.29;101087.59;6354446;27;20368;-81
2022/03/26 07:22:00;;;;;;;48.38;17.73;;;;;;;11.72;49.00;101081.41;6368882;27;20050;-79
2022/03/26 07:25:04;;;;;;;34.33;15.27;;;;;;;11.87;46.52;101086.69;6335475;27;20039;-79
2022/03/26 07:28:05;;;;;;;43.80;15.50;;;;;;;11.91;44.41;101078.75;6365908;27;20127;-81
2022/03/26 07:31:06;;;;;;;36.63;13.90;;;;;;;12.46;42.51;101078.53;6334638;27;20506;-81
2022/03/26 07:34:07;;;;;;;34.13;13.45;;;;;;;12.70;40.70;101074.63;6357388;27;20275;-82
2022/03/26 07:37:08;;;;;;;34.47;13.45;;;;;;;12.74;39.70;101077.06;6350651;27;20627;-75
2022/03/26 07:40:10;;;;;;;38.22;13.63;;;;;;;12.96;38.42;101081.97;6359716;27;20039;-80
2022/03/26 07:43:11;;;;;;;;;;;;;;;13.11;38.90;101075.88;6352533;27;20134;-82
2022/03/26 07:46:12;;;;;;;33.80;12.35;;;;;;;13.34;38.09;101077.25;6354579;27;20387;-81
2022/03/26 07:49:13;;;;;;;42.08;13.00;;;;;;;13.53;39.00;101074.44;6320809;27;20134;-77
2022/03/26 07:52:14;;;;;;;28.80;13.23;;;;;;;13.49;37.23;101073.78;6344888;27;20127;-75
2022/03/26 07:55:15;;;;;;;35.28;13.00;;;;;;;13.58;37.41;101075.00;6361310;28;20069;-77
2022/03/26 07:58:16;;;;;;;35.55;14.05;;;;;;;13.70;37.93;101082.19;6341031;28;20039;-76
2022/03/26 08:01:17;;;;;;;52.35;15.25;;;;;;;13.86;38.18;101076.91;6348973;28;20078;-84
2022/03/26 08:04:18;;;;;;;40.55;14.60;;;;;;;14.06;35.95;101073.09;6343466;28;20449;-86
2022/03/26 08:07:21;;;;;;;44.30;13.88;;;;;;;14.20;35.59;101072.25;6327271;28;20088;-86
2022/03/26 08:10:22;;;;;;;34.85;12.15;;;;;;;14.50;35.11;101073.97;6347967;28;20042;-85
2022/03/26 08:13:22;;;;;;;30.50;12.60;;;;;;;14.61;34.70;101075.97;6348732;28;20028;-83
2022/03/26 08:16:24;;;;;;;26.45;12.73;;;;;;;14.78;34.09;101067.03;6339467;27;20043;-84
2022/03/26 08:19:25;;;;;;;24.00;11.85;;;;;;;14.92;33.55;101069.66;6347102;27;20466;-84
2022/03/26 08:22:26;;;;;;;23.50;11.60;;;;;;;14.99;33.27;101072.72;6345966;28;20044;-85
2022/03/26 08:28:46;;;;;;;38.63;12.18;;;;;;;15.18;32.79;101069.78;6335397;28;20063;-84
2022/03/26 08:31:47;;;;;;;28.25;11.98;;;;;;;15.41;32.39;101068.28;6332535;28;20075;-82
2022/03/26 08:34:49;;;;;;;22.75;11.40;;;;;;;15.63;31.75;101075.63;6331339;27;20114;-82
2022/03/26 08:37:50;;;;;;;24.30;10.85;;;;;;;15.76;32.70;101078.31;6349296;27;20050;-82
2022/03/26 08:40:52;;;;;;;25.38;11.57;;;;;;;16.00;32.42;101078.44;6349529;28;20097;-83
2022/03/26 08:43:53;;;;;;;21.67;10.23;;;;;;;16.06;32.37;101071.00;6349151;28;20046;-81
2022/03/26 08:46:54;;;;;;;21.00;10.27;;;;;;;16.42;32.23;101074.66;6349943;28;20035;-81
2022/03/26 08:49:55;;;;;;;25.10;9.88;;;;;;;16.48;31.02;101068.13;6349743;28;20065;-82
2022/03/26 08:52:56;;;;;;;19.02;9.63;;;;;;;16.56;30.78;101064.97;6349803;28;20511;-81
2022/03/26 08:55:57;;;;;;;23.70;10.65;;;;;;;16.61;30.71;101063.69;6331339;28;20047;-77
2022/03/26 08:58:58;;;;;;;21.33;9.02;;;;;;;16.73;29.87;101064.63;6347069;28;20042;-82
2022/03/26 09:01:59;;;;;;;14.73;7.68;;;;;;;16.97;30.83;101074.41;6348373;28;20035;-83
2022/03/26 09:05:00;;;;;;;17.27;9.13;;;;;;;17.06;29.64;101066.66;6330396;28;20043;-83
2022/03/26 09:08:01;;;;;;;18.58;9.20;;;;;;;17.04;29.98;101055.38;6330222;28;20055;-76
2022/03/26 09:11:04;;;;;;;17.42;6.72;;;;;;;17.16;30.53;101061.56;6347005;28;20040;-76
2022/03/26 09:14:06;;;;;;;17.10;8.18;;;;;;;17.45;29.31;101066.50;6347003;28;20126;-78
2022/03/26 09:17:06;;;;;;;15.27;7.28;;;;;;;17.72;29.44;101053.03;6347056;28;20040;-77
2022/03/26 09:20:09;;;;;;;16.75;7.22;;;;;;;17.92;29.49;101054.22;6346962;28;20131;-84
2022/03/26 09:23:10;;;;;;;13.40;7.18;;;;;;;17.79;29.41;101051.63;6358940;27;20071;-81
2022/03/26 09:26:11;;;;;;;16.60;6.88;;;;;;;17.83;29.48;101061.03;6341487;27;20425;-80
2022/03/26 09:29:12;;;;;;;12.95;6.95;;;;;;;17.99;30.11;101050.13;6345686;27;20040;-81
2022/03/26 09:32:13;;;;;;;19.63;6.82;;;;;;;18.28;30.20;101047.06;6346293;27;20131;-83
2022/03/26 09:35:14;;;;;;;19.67;7.50;;;;;;;18.31;28.84;101044.19;6346024;27;20047;-75
2022/03/26 09:38:15;;;;;;;13.90;7.17;;;;;;;18.62;28.62;101039.97;6346332;28;20467;-83
2022/03/26 09:41:16;;;;;;;18.45;7.45;;;;;;;18.60;29.37;101033.97;6310257;28;20046;-75
2022/03/26 09:44:19;;;;;;;13.00;7.25;;;;;;;18.65;28.28;101036.22;6292831;28;20357;-75
2022/03/26 09:47:21;;;;;;;18.38;7.45;;;;;;;18.38;29.18;101031.31;6327193;28;20036;-75
2022/03/26 09:50:22;;;;;;;14.70;6.63;;;;;;;18.49;28.33;101029.53;6346607;28;20043;-82
2022/03/26 09:53:23;;;;;;;12.15;6.47;;;;;;;18.59;28.54;101026.97;6340458;28;20408;-74
2022/03/26 09:56:24;;;;;;;12.10;6.70;;;;;;;18.70;28.25;101029.63;6330385;28;20123;-75
2022/03/26 09:59:26;;;;;;;20.52;6.88;;;;;;;18.77;28.15;101014.09;6330338;28;20142;-76
2022/03/26 10:02:27;;;;;;;15.45;6.80;;;;;;;18.83;27.41;101012.81;6313591;28;20043;-76
2022/03/26 10:05:35;;;;;;;19.08;7.22;;;;;;;18.74;27.67;101006.44;6313401;28;20055;-75
2022/03/26 10:08:38;;;;;;;12.07;5.80;;;;;;;18.91;27.65;101008.56;6330604;28;20036;-85
2022/03/26 10:11:40;;;;;;;12.20;6.10;;;;;;;19.36;27.48;100996.16;6348057;28;20046;-84
2022/03/26 10:14:57;;;;;;;13.82;6.47;;;;;;;19.53;27.22;101003.53;6348057;28;20035;-85
2022/03/26 10:18:08;;;;;;;19.77;6.50;;;;;;;19.55;26.88;100998.09;6329251;28;20067;-82
2022/03/26 10:21:12;;;;;;;18.75;6.15;;;;;;;19.50;27.89;100986.09;6347712;28;20048;-83
2022/03/26 10:24:13;;;;;;;18.58;5.65;;;;;;;19.76;27.56;100977.78;6348093;28;20051;-83
2022/03/26 10:27:14;;;;;;;9.18;5.30;;;;;;;19.60;27.84;100980.00;6346950;28;20067;-84
2022/03/26 10:30:17;;;;;;;12.65;5.60;;;;;;;19.52;27.41;100962.16;6346669;28;20050;-85
2022/03/26 10:33:27;;;;;;;12.73;5.63;;;;;;;19.42;27.26;100972.66;6347833;28;20399;-84
2022/03/26 10:36:28;;;;;;;15.77;5.30;;;;;;;19.87;27.64;100955.66;6328310;28;20428;-86
2022/03/26 10:39:30;;;;;;;14.80;5.95;;;;;;;19.91;27.44;100957.09;6344944;28;20065;-82
2022/03/26 10:42:32;;;;;;;10.52;5.20;;;;;;;19.96;27.08;100954.06;6346554;28;20100;-76
2022/03/26 10:45:36;;;;;;;15.82;5.68;;;;;;;19.97;26.90;100942.47;6347337;28;20051;-75
2022/03/26 10:48:38;;;;;;;21.65;4.97;;;;;;;19.82;26.50;100937.53;6351060;27;20045;-76
2022/03/26 10:51:41;;;;;;;10.50;5.38;;;;;;;19.86;26.77;100930.16;6336776;27;20039;-83
2022/03/26 10:54:42;;;;;;;12.43;5.32;;;;;;;20.15;25.73;100932.94;6354400;27;20111;-83
2022/03/26 10:57:46;;;;;;;18.13;5.43;;;;;;;20.37;26.11;100929.25;6354792;27;20095;-83
2022/03/26 11:00:47;;;;;;;14.15;5.45;;;;;;;20.01;26.00;100925.34;6353164;27;20054;-83
2022/03/26 11:03:49;;;;;;;10.43;5.13;;;;;;;20.35;26.02;100933.84;6329384;28;20036;-81
2022/03/26 11:06:50;;;;;;;12.37;5.17;;;;;;;20.39;25.86;100918.50;6312204;28;20054;-80
2022/03/26 11:09:52;;;;;;;12.20;4.93;;;;;;;20.07;25.46;100916.88;6347027;28;20062;-84
2022/03/26 11:12:53;;;;;;;14.70;5.68;;;;;;;20.42;26.26;100902.31;6298710;27;20039;-84
2022/03/26 11:16:01;;;;;;;14.88;5.65;;;;;;;20.51;25.12;100910.28;6372536;27;20043;-83
2022/03/26 11:19:07;;;;;;;12.75;5.30;;;;;;;20.44;25.30;100901.19;6372448;27;20039;-87
2022/03/26 11:22:16;;;;;;;14.93;5.80;;;;;;;20.53;25.11;100895.09;6343460;28;20047;-76
2022/03/26 11:25:29;;;;;;;16.17;6.15;;;;;;;20.35;25.39;100886.13;6346008;28;20040;-77
2022/03/26 11:28:41;;;;;;;17.45;5.75;;;;;;;20.66;26.40;100888.72;6346050;28;20051;-75
2022/03/26 11:32:06;;;;;;;11.93;5.55;;;;;;;20.48;25.02;100877.91;6371257;27;20546;-77
2022/03/26 11:35:09;;;;;;;10.15;4.68;;;;;;;20.46;24.45;100871.91;6353630;27;20051;-76
2022/03/26 11:38:12;;;;;;;15.13;4.50;;;;;;;20.79;25.17;100851.31;6353325;28;20039;-82
2022/03/26 11:41:12;;;;;;;14.13;4.90;;;;;;;21.05;25.27;100848.91;6353925;27;20490;-85
2022/03/26 11:44:16;;;;;;;11.67;5.00;;;;;;;20.78;25.21;100862.91;6319585;27;20067;-84
2022/03/26 11:50:42;;;;;;;9.10;5.20;;;;;;;20.91;25.28;100832.44;6362914;27;20044;-75
2022/03/26 11:53:47;;;;;;;14.35;5.90;;;;;;;20.81;25.46;100830.78;6346034;28;20052;-85
2022/03/26 11:57:07;;;;;;;15.13;5.38;;;;;;;20.89;24.72;100834.41;6345208;28;20044;-75
2022/03/26 12:00:21;;;;;;;18.02;4.93;;;;;;;21.22;24.77;100829.59;6345411;28;20047;-85
2022/03/26 12:03:26;;;;;;;18.40;5.22;;;;;;;21.21;24.35;100821.75;6368859;28;20407;-85
2022/03/26 12:06:41;;;;;;;10.85;5.43;;;;;;;20.93;24.51;100813.75;6370442;28;20122;-85
2022/03/26 12:09:42;;;;;;;14.07;5.10;;;;;;;21.12;24.79;100812.84;6334503;28;20626;-83
2022/03/26 12:12:58;;;;;;;18.92;4.75;;;;;;;20.91;24.74;100807.72;6346821;28;20044;-85
2022/03/26 12:16:03;;;;;;;20.02;5.00;;;;;;;21.00;24.29;100806.03;6345476;28;20054;-77
2022/03/26 12:19:06;;;;;;;12.60;4.90;;;;;;;20.86;23.89;100797.56;6359913;28;20040;-74
2022/03/26 12:22:26;;;;;;;11.93;4.65;;;;;;;20.92;23.53;100794.34;6345291;28;20437;-74
2022/03/26 12:25:58;;;;;;;15.02;4.70;;;;;;;20.74;23.63;100780.13;6345082;28;20044;-74
2022/03/26 12:29:03;;;;;;;18.23;4.22;;;;;;;20.73;23.95;100778.44;6344996;28;20091;-83
2022/03/26 12:32:04;;;;;;;7.88;4.32;;;;;;;20.88;23.15;100774.38;6345779;28;20123;-84
2022/03/26 12:35:09;;;;;;;8.60;5.55;;;;;;;21.36;23.64;100769.91;6344180;28;20047;-84
2022/03/26 12:38:10;;;;;;;14.07;5.10;;;;;;;21.42;23.19;100758.72;6345303;28;20047;-75
2022/03/26 12:41:11;;;;;;;13.68;5.18;;;;;;;21.15;23.75;100764.81;6344971;28;20438;-84
2022/03/26 12:44:16;;;;;;;13.50;6.40;;;;;;;21.42;23.76;100742.81;6345764;28;20047;-84
2022/03/26 12:47:17;;;;;;;10.57;3.38;;;;;;;21.58;22.89;100746.63;6348496;28;20073;-75
2022/03/26 12:50:20;;;;;;;11.43;3.75;;;;;;;21.59;23.39;100745.66;6347066;28;20046;-74
2022/03/26 12:53:21;;;;;;;9.30;4.13;;;;;;;21.69;22.30;100752.56;6344412;28;20044;-74
2022/03/26 12:56:22;;;;;;;9.50;3.87;;;;;;;21.40;22.57;100730.63;6348977;28;20043;-74
2022/03/26 12:59:23;;;;;;;9.37;3.80;;;;;;;20.98;22.79;100729.28;6325081;28;20040;-75
2022/03/26 13:02:24;;;;;;;7.93;3.97;;;;;;;21.05;22.58;100717.09;6328520;28;20052;-74
2022/03/26 13:05:28;;;;;;;10.48;3.83;;;;;;;21.46;22.55;100708.84;6331082;28;20052;-77
2022/03/26 13:08:29;;;;;;;10.00;3.88;;;;;;;21.84;23.25;100706.91;6348764;28;20043;-84
2022/03/26 13:11:32;;;;;;;9.77;4.03;;;;;;;21.75;22.11;100702.50;6349978;28;20114;-84
2022/03/26 13:14:33;;;;;;;13.02;3.88;;;;;;;21.71;21.94;100694.00;6354176;27;20041;-75
2022/03/26 13:17:33;;;;;;;12.47;3.30;;;;;;;21.76;21.34;100696.19;6349092;27;20039;-76
2022/03/26 13:20:38;;;;;;;8.47;3.83;;;;;;;21.72;21.80;100693.84;6335601;27;20134;-76
2022/03/26 13:23:41;;;;;;;9.52;3.95;;;;;;;21.52;21.94;100676.38;6355745;27;20467;-75
2022/03/26 13:26:52;;;;;;;7.70;4.28;;;;;;;21.58;22.70;100678.44;6349824;28;20445;-85
2022/03/26 13:30:07;;;;;;;9.27;3.80;;;;;;;21.64;21.97;100666.34;6336509;28;20035;-85
2022/03/26 13:33:12;;;;;;;7.65;3.67;;;;;;;21.72;21.64;100663.78;6349826;28;20092;-87
2022/03/26 13:36:13;;;;;;;7.90;3.90;;;;;;;21.75;21.13;100662.66;6332351;28;20437;-82
2022/03/26 13:39:19;;;;;;;11.70;4.18;;;;;;;21.88;21.42;100660.44;6356206;27;20046;-82
2022/03/26 13:42:22;;;;;;;8.95;3.90;;;;;;;21.65;20.55;100649.47;6356550;27;20503;-83
2022/03/26 13:45:23;;;;;;;8.80;3.95;;;;;;;21.71;20.27;100638.22;6374513;27;20050;-76
2022/03/26 13:48:24;;;;;;;11.93;4.03;;;;;;;21.53;20.65;100640.88;6374314;27;20035;-78
2022/03/26 13:51:33;;;;;;;7.83;4.33;;;;;;;21.40;20.87;100630.59;6338453;27;20511;-76
2022/03/26 13:54:35;;;;;;;10.07;3.90;;;;;;;21.40;21.02;100622.63;6355690;27;20286;-76
2022/03/26 13:57:36;;;;;;;10.70;4.32;;;;;;;21.19;21.20;100614.09;6368580;27;20043;-76
2022/03/26 14:00:37;;;;;;;11.47;4.60;;;;;;;21.47;21.08;100615.75;6348601;28;20246;-76
2022/03/26 14:03:40;;;;;;;11.30;4.55;;;;;;;21.32;20.56;100604.78;6348001;28;20280;-75